地図

経路データ

SID SEASON NUMBER BASIN SUBBASIN NAME ISO_TIME NATURE LAT LON WMO_WIND WMO_PRES WMO_AGENCY TRACK_TYPE DIST2LAND LANDFALL IFLAG USA_AGENCY USA_ATCF_ID USA_LAT USA_LON USA_RECORD USA_STATUS USA_WIND USA_PRES USA_SSHS USA_R34_NE USA_R34_SE USA_R34_SW USA_R34_NW USA_R50_NE USA_R50_SE USA_R50_SW USA_R50_NW USA_R64_NE USA_R64_SE USA_R64_SW USA_R64_NW USA_POCI USA_ROCI USA_RMW USA_EYE TOKYO_LAT TOKYO_LON TOKYO_GRADE TOKYO_WIND TOKYO_PRES TOKYO_R50_DIR TOKYO_R50_LONG TOKYO_R50_SHORT TOKYO_R30_DIR TOKYO_R30_LONG TOKYO_R30_SHORT TOKYO_LAND CMA_LAT CMA_LON CMA_CAT CMA_WIND CMA_PRES HKO_LAT HKO_LON HKO_CAT HKO_WIND HKO_PRES NEWDELHI_LAT NEWDELHI_LON NEWDELHI_GRADE NEWDELHI_WIND NEWDELHI_PRES NEWDELHI_CI NEWDELHI_DP NEWDELHI_POCI REUNION_LAT REUNION_LON REUNION_TYPE REUNION_WIND REUNION_PRES REUNION_TNUM REUNION_CI REUNION_RMW REUNION_R34_NE REUNION_R34_SE REUNION_R34_SW REUNION_R34_NW REUNION_R50_NE REUNION_R50_SE REUNION_R50_SW REUNION_R50_NW REUNION_R64_NE REUNION_R64_SE REUNION_R64_SW REUNION_R64_NW BOM_LAT BOM_LON BOM_TYPE BOM_WIND BOM_PRES BOM_TNUM BOM_CI BOM_RMW BOM_R34_NE BOM_R34_SE BOM_R34_SW BOM_R34_NW BOM_R50_NE BOM_R50_SE BOM_R50_SW BOM_R50_NW BOM_R64_NE BOM_R64_SE BOM_R64_SW BOM_R64_NW BOM_ROCI BOM_POCI BOM_EYE BOM_POS_METHOD BOM_PRES_METHOD NADI_LAT NADI_LON NADI_CAT NADI_WIND NADI_PRES WELLINGTON_LAT WELLINGTON_LON WELLINGTON_WIND WELLINGTON_PRES DS824_LAT DS824_LON DS824_STAGE DS824_WIND DS824_PRES TD9636_LAT TD9636_LON TD9636_STAGE TD9636_WIND TD9636_PRES TD9635_LAT TD9635_LON TD9635_WIND TD9635_PRES TD9635_ROCI NEUMANN_LAT NEUMANN_LON NEUMANN_CLASS NEUMANN_WIND NEUMANN_PRES MLC_LAT MLC_LON MLC_CLASS MLC_WIND MLC_PRES USA_GUST BOM_GUST BOM_GUST_PER REUNION_GUST REUNION_GUST_PER USA_SEAHGT USA_SEARAD_NE USA_SEARAD_SE USA_SEARAD_SW USA_SEARAD_NW STORM_SPEED STORM_DIR
1931023S12049 1931 9 SI MM NOT_NAMED 1931-01-23 00:00:00 TS -12.0000 49.0000 main 24 24 _________O____ -1 -12.0000 49.0000 TC 35 9 238
1931023S12049 1931 9 SI MM NOT_NAMED 1931-01-23 03:00:00 TS -12.2501 48.5902 main 31 31 _________P____ -1 -12.2501 48.5902 TC 35 7 237
1931023S12049 1931 9 SI MM NOT_NAMED 1931-01-23 06:00:00 TS -12.3750 48.4000 reunion main 44 44 _________OO___ -1 -12.5000 48.2000 TC 35 -12.0000 49.0000 2 6 235
1931023S12049 1931 9 SI MM NOT_NAMED 1931-01-23 09:00:00 TS -12.5855 48.0994 main 76 76 _________PP___ -1 -12.7499 47.8424 TC 35 -12.2567 48.6134 2 7 234
1931023S12049 1931 9 SI MM NOT_NAMED 1931-01-23 12:00:00 TS -12.7903 47.8133 main 92 79 _________OP___ -1 -13.0000 47.5000 TC 35 -12.5106 48.2310 2 7 234
1931023S12049 1931 9 SI MM NOT_NAMED 1931-01-23 15:00:00 TS -13.0008 47.5040 main 86 85 _________PP___ -1 -13.2425 47.1499 TC 35 -12.7591 47.8582 2 8 235
1931023S12049 1931 9 SI MM NOT_NAMED 1931-01-23 18:00:00 TS -13.2500 47.1500 main 94 87 _________OO___ -1 -13.5000 46.8000 TC 35 -13.0000 47.5000 2 8 233
1931023S12049 1931 9 SI MM NOT_NAMED 1931-01-23 21:00:00 TS -13.5024 46.8115 main 121 121 _________PP___ -1 -13.7699 46.4647 TC 35 -13.2350 47.1582 2 9 231
1931023S12049 1931 9 SI MM NOT_NAMED 1931-01-24 00:00:00 TS -13.7910 46.4606 main 145 145 _________OP___ -1 -14.1000 46.1000 TC 35 -13.4820 46.8212 2 10 228
1931023S12049 1931 9 SI MM NOT_NAMED 1931-01-24 03:00:00 TS -14.1415 46.0693 main 154 139 _________PP___ -1 -14.5200 45.6650 TC 35 -13.7631 46.4737 2 11 226
1931023S12049 1931 9 SI MM NOT_NAMED 1931-01-24 06:00:00 TS -14.5500 45.6500 reunion main 139 109 _________OO___ -1 -15.0000 45.2000 TC 35 -14.1000 46.1000 2 12 225
1931023S12049 1931 9 SI MM NOT_NAMED 1931-01-24 09:00:00 TS -14.9797 45.2058 main 109 74 _________PP___ -1 -15.4699 44.7571 TC 35 -14.4894 45.6545 2 13 224
1931023S12049 1931 9 SI MM NOT_NAMED 1931-01-24 12:00:00 TS -15.4690 44.7426 main 70 35 _________OP___ -1 -16.0000 44.3000 TC 35 -14.9381 45.1852 2 14 222
1931023S12049 1931 9 SI MM NOT_NAMED 1931-01-24 15:00:00 TS -16.0352 44.2356 main 39 30 _________PP___ -1 -16.6278 43.7480 TC 35 -15.4426 44.7231 2 15 217
1931023S12049 1931 9 SI MM NOT_NAMED 1931-01-24 18:00:00 TS -16.6500 43.8000 main 62 47 _________OO___ -1 -17.3000 43.3000 TC 35 -16.0000 44.3000 2 15 210
1931023S12049 1931 9 SI MM NOT_NAMED 1931-01-24 21:00:00 TS -17.3156 43.4511 main 47 47 _________PP___ -1 -17.9871 43.0650 TC 35 -16.6441 43.8373 2 14 201
1931023S12049 1931 9 SI MM NOT_NAMED 1931-01-25 00:00:00 TS -17.9647 43.2667 main 74 73 _________OP___ -1 -18.6000 43.1000 TC 35 -17.3295 43.4335 2 12 188
1931023S12049 1931 9 SI MM NOT_NAMED 1931-01-25 03:00:00 TS -18.5226 43.2862 main 74 71 _________PP___ -1 -19.0451 43.4097 TC 35 -18.0001 43.1626 2 11 168
1931023S12049 1931 9 SI MM NOT_NAMED 1931-01-25 06:00:00 TS -19.0000 43.5000 reunion main 73 47 _________OO___ -1 -19.4000 43.9000 TC 35 -18.6000 43.1000 2 11 149
1931023S12049 1931 9 SI MM NOT_NAMED 1931-01-25 09:00:00 TS -19.4158 43.8623 main 46 10 _________PP___ -1 -19.7650 44.3926 TC 35 -19.0666 43.3320 2 11 135
1931023S12049 1931 9 SI MM NOT_NAMED 1931-01-25 12:00:00 TS -19.7779 44.3362 main 10 0 _________OP___ -1 -20.1000 44.9000 TC 35 -19.4558 43.7723 2 12 127
1931023S12049 1931 9 SI MM NOT_NAMED 1931-01-25 15:00:00 TS -20.0996 44.8422 main 0 0 _________PP___ -1 -20.4073 45.3578 TC 35 -19.7919 44.3266 2 11 123
1931023S12049 1931 9 SI MM NOT_NAMED 1931-01-25 18:00:00 TS -20.4000 45.3500 main 0 0 _________OO___ -1 -20.7000 45.8000 TC 35 -20.1000 44.9000 2 11 125
1931023S12049 1931 9 SI MM NOT_NAMED 1931-01-25 21:00:00 TS -20.7480 45.8408 main 0 0 _________PP___ -1 -21.0376 46.2872 TC 35 -20.4584 45.3943 2 11 126
1931023S12049 1931 9 SI MM NOT_NAMED 1931-01-26 00:00:00 TS -21.0452 46.2909 main 0 0 _________OP___ -1 -21.3000 46.7000 TC 35 -20.7905 45.8818 2 9 123
1931023S12049 1931 9 SI MM NOT_NAMED 1931-01-26 03:00:00 TS -21.2285 46.6369 main 0 0 _________PP___ -1 -21.3798 46.9453 TC 35 -21.0773 46.3285 2 3 99
1931023S12049 1931 9 SI MM NOT_NAMED 1931-01-26 06:00:00 TS -21.0889 46.5778 reunion main 0 0 _____O___OO___ -1 -19.0000 44.0000 99 9.90000 -21.4000 47.1000 TC 35 -21.3000 46.7000 2 2 327
1931023S12049 1931 9 SI MM NOT_NAMED 1931-01-26 09:00:00 TS -21.0875 46.5454 main 0 0 _____P___PP___ -1 -19.5646 44.7653 99 -21.4925 47.2575 TC 35 -21.4349 46.9552 2 1 0
1931023S12049 1931 9 SI MM NOT_NAMED 1931-01-26 12:00:00 TS -21.1696 46.5934 main 0 0 _____P___OP___ -1 -20.1163 45.5231 99 -21.6000 47.4000 TC 35 -21.5091 47.1338 2 3 140
1931023S12049 1931 9 SI MM NOT_NAMED 1931-01-26 15:00:00 TS -21.3086 46.7507 main 0 0 _____P___PP___ -1 -20.6450 46.2594 99 -21.7000 47.5425 TC 35 -21.5538 47.2705 2 6 127
1931023S12049 1931 9 SI MM NOT_NAMED 1931-01-26 18:00:00 TS -21.5208 47.0927 main 0 0 _____P___OO___ -1 -21.1405 46.9595 99 -21.8000 47.7000 TC 35 -21.6000 47.4000 2 8 122
1931023S12049 1931 9 SI MM NOT_NAMED 1931-01-26 21:00:00 TS -21.7331 47.4748 main 0 0 _____P___PP___ -1 -21.5931 47.6087 99 -21.9000 47.8925 TC 35 -21.6927 47.5669 2 8 120
1931023S12049 1931 9 SI MM NOT_NAMED 1931-01-27 00:00:00 TS -21.9300 47.8613 main 0 0 _____P___OP___ -1 -21.9933 48.1919 99 -22.0000 48.1000 TC 35 -21.7923 47.7351 2 8 118
1931023S12049 1931 9 SI MM NOT_NAMED 1931-01-27 03:00:00 TS -22.1087 48.2270 main 15 15 _____P___PP___ -1 -22.3319 48.6941 99 -22.0999 48.2925 TC 35 -21.8958 47.9107 2 7 117
1931023S12049 1931 9 SI MM NOT_NAMED 1931-01-27 06:00:00 TS -22.2667 48.5667 reunion main 61 61 _____O___OO___ -1 -22.6000 49.1000 99 9.90000 -22.2000 48.5000 TC 35 -22.0000 48.1000 2 6 118
1931023S12049 1931 9 SI MM NOT_NAMED 1931-01-27 09:00:00 TS -22.3923 48.8153 main 84 84 _____P___PP___ -1 -22.7925 49.4005 99 -22.2925 48.7426 TC 35 -22.0918 48.3027 2 5 118
1931023S12049 1931 9 SI MM NOT_NAMED 1931-01-27 12:00:00 TS -22.5016 49.0434 main 108 108 _____P___OP___ -1 -22.9200 49.6098 99 -22.4000 49.0000 TC 35 -22.1849 48.5203 2 5 118
1931023S12049 1931 9 SI MM NOT_NAMED 1931-01-27 15:00:00 TS -22.6082 49.2478 main 131 131 _____P___PP___ -1 -22.9966 49.7482 99 -22.5424 49.2425 TC 35 -22.2855 48.7528 2 4 120
1931023S12049 1931 9 SI MM NOT_NAMED 1931-01-27 18:00:00 TS -22.7121 49.4454 main 154 154 _____P___OO___ -1 -23.0363 49.8362 99 -22.7000 49.5000 TC 35 -22.4000 49.0000 2 4 119
1931023S12049 1931 9 SI MM NOT_NAMED 1931-01-27 21:00:00 TS -22.8180 49.6531 main 187 187 _____P___PP___ -1 -23.0527 49.8947 99 -22.8575 49.8000 TC 35 -22.5438 49.2645 2 4 118
1931023S12049 1931 9 SI MM NOT_NAMED 1931-01-28 00:00:00 TS -22.9199 49.8622 main 209 209 _____P___OP___ -1 -23.0597 49.9442 99 -23.0000 50.1000 TC 35 -22.7000 49.5423 2 4 117
1931023S12049 1931 9 SI MM NOT_NAMED 1931-01-28 03:00:00 TS -23.0115 50.0624 main 232 232 _____P___PP___ -1 -23.0709 50.0057 99 -23.1074 50.3576 TC 35 -22.8563 49.8239 2 4 116
1931023S12049 1931 9 SI MM NOT_NAMED 1931-01-28 06:00:00 TS -23.1000 50.2667 reunion main 254 254 _____O___OO___ -1 -23.1000 50.1000 99 9.90000 -23.2000 50.6000 TC 35 -23.0000 50.1000 2 5 115
1931023S12049 1931 9 SI MM NOT_NAMED 1931-01-28 09:00:00 TS -23.2029 50.5100 main 277 277 _____P___PP___ -1 -23.2061 50.3223 99 -23.2925 50.8501 TC 35 -23.1101 50.3575 2 5 115
1931023S12049 1931 9 SI MM NOT_NAMED 1931-01-28 12:00:00 TS -23.3102 50.7591 main 309 309 _____P___OP___ -1 -23.3232 50.5693 99 -23.4000 51.1000 TC 35 -23.2073 50.6079 2 5 116
1931023S12049 1931 9 SI MM NOT_NAMED 1931-01-28 15:00:00 TS -23.4331 51.0129 main 331 331 _____P___PP___ -1 -23.4484 50.8344 99 -23.5500 51.3500 TC 35 -23.3008 50.8544 2 5 118
1931023S12049 1931 9 SI MM NOT_NAMED 1931-01-28 18:00:00 TS -23.5597 51.2703 main 365 365 _____P___OO___ -1 -23.5790 51.1110 99 -23.7000 51.6000 TC 35 -23.4000 51.1000 2 5 117
1931023S12049 1931 9 SI MM NOT_NAMED 1931-01-28 21:00:00 TS -23.6805 51.5347 main 388 388 _____P___PP___ -1 -23.7121 51.3926 99 -23.8075 51.8576 TC 35 -23.5218 51.3541 2 5 116
1931023S12049 1931 9 SI MM NOT_NAMED 1931-01-29 00:00:00 TS -23.7983 51.7933 main 419 419 _____P___OP___ -1 -23.8451 51.6725 99 -23.9000 52.1000 TC 35 -23.6499 51.6075 2 5 117
1931023S12049 1931 9 SI MM NOT_NAMED 1931-01-29 03:00:00 TS -23.9177 52.0337 main 441 431 _____P___PP___ -1 -23.9753 51.9439 99 -23.9999 52.3001 TC 35 -23.7781 51.8572 2 5 118
1931023S12049 1931 9 SI MM NOT_NAMED 1931-01-29 06:00:00 TS -24.0333 52.2667 reunion main 431 424 _____O___OO___ -1 -24.1000 52.2000 99 9.90000 -24.1000 52.5000 TC 35 -23.9000 52.1000 2 5 117
1931023S12049 1931 9 SI MM NOT_NAMED 1931-01-29 09:00:00 TS -24.1314 52.4908 main 424 419 _____P___PP___ -1 -24.1986 52.3898 99 -24.1925 52.7500 TC 35 -24.0030 52.3324 2 4 116
1931023S12049 1931 9 SI MM NOT_NAMED 1931-01-29 12:00:00 TS -24.2306 52.7071 main 419 415 _____P___OP___ -1 -24.2920 52.5636 99 -24.3000 53.0000 TC 35 -24.0998 52.5578 2 4 119
1931023S12049 1931 9 SI MM NOT_NAMED 1931-01-29 15:00:00 TS -24.3432 52.9027 main 415 413 _____P___PP___ -1 -24.3829 52.7289 99 -24.4499 53.2000 TC 35 -24.1967 52.7793 2 4 123
1931023S12049 1931 9 SI MM NOT_NAMED 1931-01-29 18:00:00 TS -24.4581 53.0978 main 422 412 _____P___OO___ -1 -24.4744 52.8935 99 -24.6000 53.4000 TC 35 -24.3000 53.0000 2 4 121
1931023S12049 1931 9 SI MM NOT_NAMED 1931-01-29 21:00:00 TS -24.5608 53.2992 main 421 412 _____P___PP___ -1 -24.5690 53.0651 99 -24.6999 53.6277 TC 35 -24.4134 53.2050 2 4 119
1931023S12049 1931 9 SI MM NOT_NAMED 1931-01-30 00:00:00 TS -24.6681 53.5215 main 422 413 _____P___OP___ -1 -24.6697 53.2515 99 -24.8000 53.9000 TC 35 -24.5345 53.4130 2 5 118
1931023S12049 1931 9 SI MM NOT_NAMED 1931-01-30 03:00:00 TS -24.7950 53.7783 main 420 416 _____P___PP___ -1 -24.7792 53.4605 99 -24.9425 54.2350 TC 35 -24.6633 53.6394 2 6 118
1931023S12049 1931 9 SI MM NOT_NAMED 1931-01-30 06:00:00 TS -24.9333 54.0667 reunion main 420 420 _____O___OO___ -1 -24.9000 53.7000 99 9.90000 -25.1000 54.6000 TC 35 -24.8000 53.9000 2 6 117
1931023S12049 1931 9 SI MM NOT_NAMED 1931-01-30 09:00:00 TS -25.0757 54.3813 main 431 428 _____P___PP___ -1 -25.0341 53.9759 99 -25.2499 54.9501 TC 35 -24.9430 54.2181 2 7 116
1931023S12049 1931 9 SI MM NOT_NAMED 1931-01-30 12:00:00 TS -25.2243 54.7186 main 434 432 _____P___OP___ -1 -25.1802 54.2857 99 -25.4000 55.3000 TC 35 -25.0927 54.5699 2 7 116
1931023S12049 1931 9 SI MM NOT_NAMED 1931-01-30 15:00:00 TS -25.3775 55.0731 main 449 448 _____P___PP___ -1 -25.3364 54.6250 99 -25.5500 55.6576 TC 35 -25.2461 54.9369 2 7 116
1931023S12049 1931 9 SI MM NOT_NAMED 1931-01-30 18:00:00 TS -25.5184 55.3778 main 458 458 _____P___OO___ -1 -25.5007 54.9890 99 -25.7000 56.0000 TC 35 -25.4000 55.3000 2 6 118
1931023S12049 1931 9 SI MM NOT_NAMED 1931-01-30 21:00:00 TS -25.6593 55.6691 main 480 480 _____P___PP___ -1 -25.6711 55.3732 99 -25.8501 56.3099 TC 35 -25.5522 55.6445 2 6 118
1931023S12049 1931 9 SI MM NOT_NAMED 1931-01-31 00:00:00 TS -25.8064 55.9765 main 493 493 _____P___OP___ -1 -25.8456 55.7730 99 -26.0000 56.6000 TC 35 -25.7027 55.9721 2 6 119
1931023S12049 1931 9 SI MM NOT_NAMED 1931-01-31 03:00:00 NR -25.9372 56.2361 main 506 506 _____P____P___ -1 -26.0226 56.1835 99 TC -25.8518 56.2886 2 6 118
1931023S12049 1931 9 SI MM NOT_NAMED 1931-01-31 06:00:00 NR -26.1000 56.6000 reunion main 535 _____O____O___ -1 -26.2000 56.6000 99 9.90000 -26.0000 56.6000 2 7 117

IBTrACS Databaseについて

本データベースは、米国NOAAが公開する1842年以降の世界の熱帯低気圧のベストトラックデータアーカイブInternational Best Track Archive for Climate Stewardship (IBTrACS)を、ウェブで閲覧しやすい形式に変換したものです。

最終更新日:2021-10-21